sensor_id;sensor_type;location;lat;lon;timestamp;P1;durP1;ratioP1;P2;durP2;ratioP2
15258;SDS011;34462;51.368;12.364;2022-09-27T00:01:09;1.53;;;1.43;;
15258;SDS011;34462;51.368;12.364;2022-09-27T00:03:40;1.87;;;1.43;;
15258;SDS011;34462;51.368;12.364;2022-09-27T00:06:10;1.33;;;1.23;;
15258;SDS011;34462;51.368;12.364;2022-09-27T00:08:43;1.47;;;1.30;;
15258;SDS011;34462;51.368;12.364;2022-09-27T00:11:13;1.73;;;1.30;;
15258;SDS011;34462;51.368;12.364;2022-09-27T00:13:51;1.23;;;1.10;;
15258;SDS011;34462;51.368;12.364;2022-09-27T00:16:21;2.07;;;1.37;;
15258;SDS011;34462;51.368;12.364;2022-09-27T00:18:50;1.90;;;1.50;;
15258;SDS011;34462;51.368;12.364;2022-09-27T00:21:18;1.67;;;1.40;;
15258;SDS011;34462;51.368;12.364;2022-09-27T00:23:48;1.53;;;1.20;;
15258;SDS011;34462;51.368;12.364;2022-09-27T00:26:16;1.40;;;1.30;;
15258;SDS011;34462;51.368;12.364;2022-09-27T00:28:44;3.72;;;1.58;;
15258;SDS011;34462;51.368;12.364;2022-09-27T00:31:17;2.20;;;1.60;;
15258;SDS011;34462;51.368;12.364;2022-09-27T00:33:47;1.67;;;1.50;;
15258;SDS011;34462;51.368;12.364;2022-09-27T00:36:17;1.43;;;1.33;;
15258;SDS011;34462;51.368;12.364;2022-09-27T00:38:48;2.53;;;1.40;;
15258;SDS011;34462;51.368;12.364;2022-09-27T00:41:18;2.70;;;1.60;;
15258;SDS011;34462;51.368;12.364;2022-09-27T00:43:49;1.50;;;1.40;;
15258;SDS011;34462;51.368;12.364;2022-09-27T00:46:22;2.00;;;1.33;;
15258;SDS011;34462;51.368;12.364;2022-09-27T00:49:00;2.47;;;1.77;;
15258;SDS011;34462;51.368;12.364;2022-09-27T00:51:37;2.27;;;1.53;;
15258;SDS011;34462;51.368;12.364;2022-09-27T00:54:11;1.77;;;1.57;;
15258;SDS011;34462;51.368;12.364;2022-09-27T00:56:42;4.20;;;1.60;;
15258;SDS011;34462;51.368;12.364;2022-09-27T00:59:14;1.53;;;1.33;;
15258;SDS011;34462;51.368;12.364;2022-09-27T01:01:47;2.30;;;1.60;;
15258;SDS011;34462;51.368;12.364;2022-09-27T01:04:17;5.50;;;1.70;;
15258;SDS011;34462;51.368;12.364;2022-09-27T01:06:50;2.70;;;1.67;;
15258;SDS011;34462;51.368;12.364;2022-09-27T01:09:20;1.73;;;1.60;;
15258;SDS011;34462;51.368;12.364;2022-09-27T01:11:53;3.37;;;1.63;;
15258;SDS011;34462;51.368;12.364;2022-09-27T01:14:36;2.00;;;1.60;;
15258;SDS011;34462;51.368;12.364;2022-09-27T01:17:25;1.77;;;1.43;;
15258;SDS011;34462;51.368;12.364;2022-09-27T01:20:16;2.17;;;1.70;;
15258;SDS011;34462;51.368;12.364;2022-09-27T01:23:27;1.60;;;1.50;;
15258;SDS011;34462;51.368;12.364;2022-09-27T01:26:23;1.93;;;1.73;;
15258;SDS011;34462;51.368;12.364;2022-09-27T01:29:20;1.77;;;1.53;;
15258;SDS011;34462;51.368;12.364;2022-09-27T01:32:08;2.43;;;1.50;;
15258;SDS011;34462;51.368;12.364;2022-09-27T01:34:46;1.50;;;1.40;;
15258;SDS011;34462;51.368;12.364;2022-09-27T01:37:25;1.50;;;1.40;;
15258;SDS011;34462;51.368;12.364;2022-09-27T01:40:07;2.80;;;1.50;;
15258;SDS011;34462;51.368;12.364;2022-09-27T01:42:46;1.50;;;1.40;;
15258;SDS011;34462;51.368;12.364;2022-09-27T01:45:24;2.43;;;1.40;;
15258;SDS011;34462;51.368;12.364;2022-09-27T01:48:03;1.53;;;1.43;;
15258;SDS011;34462;51.368;12.364;2022-09-27T01:50:40;1.87;;;1.60;;
15258;SDS011;34462;51.368;12.364;2022-09-27T01:53:15;1.87;;;1.30;;
15258;SDS011;34462;51.368;12.364;2022-09-27T01:55:48;1.60;;;1.50;;
15258;SDS011;34462;51.368;12.364;2022-09-27T01:58:21;1.90;;;1.23;;
15258;SDS011;34462;51.368;12.364;2022-09-27T02:00:57;1.93;;;1.60;;
15258;SDS011;34462;51.368;12.364;2022-09-27T02:03:30;1.53;;;1.30;;
15258;SDS011;34462;51.368;12.364;2022-09-27T02:06:04;1.10;;;1.00;;
15258;SDS011;34462;51.368;12.364;2022-09-27T02:08:40;3.00;;;1.40;;
15258;SDS011;34462;51.368;12.364;2022-09-27T02:11:13;1.40;;;1.30;;
15258;SDS011;34462;51.368;12.364;2022-09-27T02:13:43;1.37;;;1.10;;
15258;SDS011;34462;51.368;12.364;2022-09-27T02:16:21;2.27;;;1.27;;
15258;SDS011;34462;51.368;12.364;2022-09-27T02:19:00;1.70;;;1.47;;
15258;SDS011;34462;51.368;12.364;2022-09-27T02:21:40;1.83;;;1.40;;
15258;SDS011;34462;51.368;12.364;2022-09-27T02:24:21;1.77;;;1.30;;
15258;SDS011;34462;51.368;12.364;2022-09-27T02:27:11;1.40;;;1.30;;
15258;SDS011;34462;51.368;12.364;2022-09-27T02:29:44;1.43;;;1.27;;
15258;SDS011;34462;51.368;12.364;2022-09-27T02:32:20;1.73;;;1.23;;
15258;SDS011;34462;51.368;12.364;2022-09-27T02:34:50;1.37;;;1.10;;
15258;SDS011;34462;51.368;12.364;2022-09-27T02:37:21;1.33;;;1.17;;
15258;SDS011;34462;51.368;12.364;2022-09-27T02:39:49;1.63;;;1.20;;
15258;SDS011;34462;51.368;12.364;2022-09-27T02:42:17;1.47;;;1.20;;
15258;SDS011;34462;51.368;12.364;2022-09-27T02:44:45;1.20;;;1.10;;
15258;SDS011;34462;51.368;12.364;2022-09-27T02:47:27;2.07;;;1.30;;
15258;SDS011;34462;51.368;12.364;2022-09-27T02:50:17;2.33;;;1.10;;
15258;SDS011;34462;51.368;12.364;2022-09-27T02:53:13;1.53;;;1.20;;
15258;SDS011;34462;51.368;12.364;2022-09-27T02:55:59;1.67;;;1.50;;
15258;SDS011;34462;51.368;12.364;2022-09-27T02:58:43;2.37;;;1.60;;
15258;SDS011;34462;51.368;12.364;2022-09-27T03:01:26;2.57;;;1.20;;
15258;SDS011;34462;51.368;12.364;2022-09-27T03:04:07;1.20;;;1.10;;
15258;SDS011;34462;51.368;12.364;2022-09-27T03:06:45;1.07;;;0.97;;
15258;SDS011;34462;51.368;12.364;2022-09-27T03:09:19;1.63;;;1.40;;
15258;SDS011;34462;51.368;12.364;2022-09-27T03:11:50;1.40;;;1.30;;
15258;SDS011;34462;51.368;12.364;2022-09-27T03:14:18;2.33;;;1.40;;
15258;SDS011;34462;51.368;12.364;2022-09-27T03:16:46;1.33;;;1.20;;
15258;SDS011;34462;51.368;12.364;2022-09-27T03:19:15;1.30;;;1.20;;
15258;SDS011;34462;51.368;12.364;2022-09-27T03:21:44;1.70;;;1.20;;
15258;SDS011;34462;51.368;12.364;2022-09-27T03:24:12;1.43;;;1.30;;
15258;SDS011;34462;51.368;12.364;2022-09-27T03:26:40;1.60;;;1.20;;
15258;SDS011;34462;51.368;12.364;2022-09-27T03:29:08;1.80;;;1.50;;
15258;SDS011;34462;51.368;12.364;2022-09-27T03:31:36;2.47;;;1.43;;
15258;SDS011;34462;51.368;12.364;2022-09-27T03:34:04;1.43;;;1.10;;
15258;SDS011;34462;51.368;12.364;2022-09-27T03:36:33;1.57;;;1.20;;
15258;SDS011;34462;51.368;12.364;2022-09-27T03:39:02;1.30;;;1.10;;
15258;SDS011;34462;51.368;12.364;2022-09-27T03:41:30;2.33;;;1.23;;
15258;SDS011;34462;51.368;12.364;2022-09-27T03:43:59;1.43;;;1.23;;
15258;SDS011;34462;51.368;12.364;2022-09-27T03:46:27;2.03;;;1.17;;
15258;SDS011;34462;51.368;12.364;2022-09-27T03:48:55;1.30;;;1.20;;
15258;SDS011;34462;51.368;12.364;2022-09-27T03:51:24;1.67;;;1.00;;
15258;SDS011;34462;51.368;12.364;2022-09-27T03:53:52;1.20;;;1.10;;
15258;SDS011;34462;51.368;12.364;2022-09-27T03:56:21;1.40;;;1.30;;
15258;SDS011;34462;51.368;12.364;2022-09-27T03:58:49;2.27;;;1.47;;
15258;SDS011;34462;51.368;12.364;2022-09-27T04:01:18;1.47;;;1.20;;
15258;SDS011;34462;51.368;12.364;2022-09-27T04:03:46;1.20;;;1.10;;
15258;SDS011;34462;51.368;12.364;2022-09-27T04:06:15;1.43;;;1.20;;
15258;SDS011;34462;51.368;12.364;2022-09-27T04:08:44;1.73;;;1.20;;
15258;SDS011;34462;51.368;12.364;2022-09-27T04:11:12;1.63;;;1.10;;
15258;SDS011;34462;51.368;12.364;2022-09-27T04:13:42;1.30;;;1.20;;
15258;SDS011;34462;51.368;12.364;2022-09-27T04:16:10;1.67;;;1.20;;
15258;SDS011;34462;51.368;12.364;2022-09-27T04:18:38;2.13;;;1.50;;
15258;SDS011;34462;51.368;12.364;2022-09-27T04:21:06;1.40;;;1.30;;
15258;SDS011;34462;51.368;12.364;2022-09-27T04:23:35;2.10;;;1.50;;
15258;SDS011;34462;51.368;12.364;2022-09-27T04:26:03;1.60;;;1.30;;
15258;SDS011;34462;51.368;12.364;2022-09-27T04:28:32;1.37;;;1.27;;
15258;SDS011;34462;51.368;12.364;2022-09-27T04:31:01;1.90;;;1.50;;
15258;SDS011;34462;51.368;12.364;2022-09-27T04:33:30;2.80;;;1.67;;
15258;SDS011;34462;51.368;12.364;2022-09-27T04:35:58;1.50;;;1.40;;
15258;SDS011;34462;51.368;12.364;2022-09-27T04:38:44;1.67;;;1.40;;
15258;SDS011;34462;51.368;12.364;2022-09-27T04:41:13;4.47;;;1.23;;
15258;SDS011;34462;51.368;12.364;2022-09-27T04:43:41;1.80;;;1.53;;
15258;SDS011;34462;51.368;12.364;2022-09-27T04:46:10;1.50;;;1.40;;
15258;SDS011;34462;51.368;12.364;2022-09-27T04:48:39;2.13;;;1.50;;
15258;SDS011;34462;51.368;12.364;2022-09-27T04:51:08;1.43;;;1.30;;
15258;SDS011;34462;51.368;12.364;2022-09-27T04:53:37;2.30;;;1.47;;
15258;SDS011;34462;51.368;12.364;2022-09-27T04:56:05;1.60;;;1.40;;
15258;SDS011;34462;51.368;12.364;2022-09-27T04:58:33;1.60;;;1.50;;
15258;SDS011;34462;51.368;12.364;2022-09-27T05:01:01;1.70;;;1.60;;
15258;SDS011;34462;51.368;12.364;2022-09-27T05:03:32;1.53;;;1.40;;
15258;SDS011;34462;51.368;12.364;2022-09-27T05:06:00;1.70;;;1.60;;
15258;SDS011;34462;51.368;12.364;2022-09-27T05:08:28;1.90;;;1.80;;
15258;SDS011;34462;51.368;12.364;2022-09-27T05:10:56;3.53;;;1.73;;
15258;SDS011;34462;51.368;12.364;2022-09-27T05:13:24;1.60;;;1.50;;
15258;SDS011;34462;51.368;12.364;2022-09-27T05:15:53;3.53;;;1.63;;
15258;SDS011;34462;51.368;12.364;2022-09-27T05:18:21;1.97;;;1.67;;
15258;SDS011;34462;51.368;12.364;2022-09-27T05:20:51;1.73;;;1.50;;
15258;SDS011;34462;51.368;12.364;2022-09-27T05:23:21;1.60;;;1.50;;
15258;SDS011;34462;51.368;12.364;2022-09-27T05:25:50;1.40;;;1.30;;
15258;SDS011;34462;51.368;12.364;2022-09-27T05:28:21;1.83;;;1.50;;
15258;SDS011;34462;51.368;12.364;2022-09-27T05:30:49;2.23;;;1.50;;
15258;SDS011;34462;51.368;12.364;2022-09-27T05:33:17;1.60;;;1.50;;
15258;SDS011;34462;51.368;12.364;2022-09-27T05:35:51;3.50;;;1.60;;
15258;SDS011;34462;51.368;12.364;2022-09-27T05:38:20;1.80;;;1.57;;
15258;SDS011;34462;51.368;12.364;2022-09-27T05:40:49;2.77;;;1.70;;
15258;SDS011;34462;51.368;12.364;2022-09-27T05:43:17;2.17;;;1.50;;
15258;SDS011;34462;51.368;12.364;2022-09-27T05:45:46;2.63;;;1.50;;
15258;SDS011;34462;51.368;12.364;2022-09-27T05:48:15;1.53;;;1.43;;
15258;SDS011;34462;51.368;12.364;2022-09-27T05:50:43;1.87;;;1.43;;
15258;SDS011;34462;51.368;12.364;2022-09-27T05:53:13;1.70;;;1.40;;
15258;SDS011;34462;51.368;12.364;2022-09-27T05:55:41;2.83;;;1.90;;
15258;SDS011;34462;51.368;12.364;2022-09-27T05:58:09;2.67;;;2.47;;
15258;SDS011;34462;51.368;12.364;2022-09-27T06:00:38;1.70;;;1.60;;
15258;SDS011;34462;51.368;12.364;2022-09-27T06:03:06;1.47;;;1.37;;
15258;SDS011;34462;51.368;12.364;2022-09-27T06:05:39;2.40;;;1.30;;
15258;SDS011;34462;51.368;12.364;2022-09-27T06:08:08;1.37;;;1.27;;
15258;SDS011;34462;51.368;12.364;2022-09-27T06:10:40;4.90;;;1.40;;
15258;SDS011;34462;51.368;12.364;2022-09-27T06:13:09;1.37;;;1.20;;
15258;SDS011;34462;51.368;12.364;2022-09-27T06:15:41;1.50;;;1.40;;
15258;SDS011;34462;51.368;12.364;2022-09-27T06:18:12;1.30;;;1.20;;
15258;SDS011;34462;51.368;12.364;2022-09-27T06:20:43;1.97;;;1.50;;
15258;SDS011;34462;51.368;12.364;2022-09-27T06:23:12;2.33;;;1.30;;
15258;SDS011;34462;51.368;12.364;2022-09-27T06:25:43;1.30;;;1.20;;
15258;SDS011;34462;51.368;12.364;2022-09-27T06:28:13;2.40;;;1.47;;
15258;SDS011;34462;51.368;12.364;2022-09-27T06:30:43;1.70;;;1.43;;
15258;SDS011;34462;51.368;12.364;2022-09-27T06:33:14;1.53;;;1.27;;
15258;SDS011;34462;51.368;12.364;2022-09-27T06:35:45;2.83;;;1.50;;
15258;SDS011;34462;51.368;12.364;2022-09-27T06:38:15;2.20;;;1.40;;
15258;SDS011;34462;51.368;12.364;2022-09-27T06:40:48;1.47;;;1.37;;
15258;SDS011;34462;51.368;12.364;2022-09-27T06:43:17;1.80;;;1.30;;
15258;SDS011;34462;51.368;12.364;2022-09-27T06:45:47;1.60;;;1.33;;
15258;SDS011;34462;51.368;12.364;2022-09-27T06:48:15;2.30;;;1.60;;
15258;SDS011;34462;51.368;12.364;2022-09-27T06:50:44;2.67;;;1.80;;
15258;SDS011;34462;51.368;12.364;2022-09-27T06:53:14;2.33;;;1.70;;
15258;SDS011;34462;51.368;12.364;2022-09-27T06:55:43;2.20;;;1.60;;
15258;SDS011;34462;51.368;12.364;2022-09-27T06:58:12;2.00;;;1.80;;
15258;SDS011;34462;51.368;12.364;2022-09-27T07:00:58;1.53;;;1.43;;
15258;SDS011;34462;51.368;12.364;2022-09-27T07:03:26;2.03;;;1.70;;
15258;SDS011;34462;51.368;12.364;2022-09-27T07:06:06;1.60;;;1.50;;
15258;SDS011;34462;51.368;12.364;2022-09-27T07:08:43;1.57;;;1.47;;
15258;SDS011;34462;51.368;12.364;2022-09-27T07:11:11;3.13;;;1.70;;
15258;SDS011;34462;51.368;12.364;2022-09-27T07:13:41;2.20;;;1.70;;
15258;SDS011;34462;51.368;12.364;2022-09-27T07:16:10;1.70;;;1.60;;
15258;SDS011;34462;51.368;12.364;2022-09-27T07:18:39;2.37;;;1.43;;
15258;SDS011;34462;51.368;12.364;2022-09-27T07:21:08;2.60;;;1.63;;
15258;SDS011;34462;51.368;12.364;2022-09-27T07:23:37;2.20;;;1.50;;
15258;SDS011;34462;51.368;12.364;2022-09-27T07:26:06;2.07;;;1.40;;
15258;SDS011;34462;51.368;12.364;2022-09-27T07:28:35;2.27;;;1.63;;
15258;SDS011;34462;51.368;12.364;2022-09-27T07:31:08;3.53;;;1.60;;
15258;SDS011;34462;51.368;12.364;2022-09-27T07:33:37;1.70;;;1.47;;
15258;SDS011;34462;51.368;12.364;2022-09-27T07:36:09;3.47;;;1.80;;
15258;SDS011;34462;51.368;12.364;2022-09-27T07:38:38;2.47;;;1.10;;
15258;SDS011;34462;51.368;12.364;2022-09-27T07:41:07;2.60;;;1.30;;
15258;SDS011;34462;51.368;12.364;2022-09-27T07:43:39;2.37;;;1.63;;
15258;SDS011;34462;51.368;12.364;2022-09-27T07:46:09;1.33;;;1.10;;
15258;SDS011;34462;51.368;12.364;2022-09-27T07:48:38;2.93;;;1.30;;
15258;SDS011;34462;51.368;12.364;2022-09-27T07:51:07;1.33;;;1.10;;
15258;SDS011;34462;51.368;12.364;2022-09-27T07:53:37;1.97;;;1.30;;
15258;SDS011;34462;51.368;12.364;2022-09-27T07:56:05;2.33;;;1.30;;
15258;SDS011;34462;51.368;12.364;2022-09-27T07:58:33;2.85;;;1.40;;
15258;SDS011;34462;51.368;12.364;2022-09-27T08:01:02;0.82;;;0.80;;
15258;SDS011;34462;51.368;12.364;2022-09-27T08:03:31;1.10;;;0.90;;
15258;SDS011;34462;51.368;12.364;2022-09-27T08:06:00;1.23;;;0.83;;
15258;SDS011;34462;51.368;12.364;2022-09-27T08:08:30;2.83;;;0.70;;
15258;SDS011;34462;51.368;12.364;2022-09-27T08:10:58;1.13;;;0.90;;
15258;SDS011;34462;51.368;12.364;2022-09-27T08:13:26;1.52;;;1.10;;
15258;SDS011;34462;51.368;12.364;2022-09-27T08:15:59;0.98;;;0.90;;
15258;SDS011;34462;51.368;12.364;2022-09-27T08:18:28;0.93;;;0.70;;
15258;SDS011;34462;51.368;12.364;2022-09-27T08:20:58;1.53;;;0.73;;
15258;SDS011;34462;51.368;12.364;2022-09-27T08:23:27;2.00;;;1.10;;
15258;SDS011;34462;51.368;12.364;2022-09-27T08:25:55;1.13;;;0.90;;
15258;SDS011;34462;51.368;12.364;2022-09-27T08:28:24;1.13;;;0.80;;
15258;SDS011;34462;51.368;12.364;2022-09-27T08:30:53;0.95;;;0.90;;
15258;SDS011;34462;51.368;12.364;2022-09-27T08:33:25;0.98;;;0.90;;
15258;SDS011;34462;51.368;12.364;2022-09-27T08:36:00;0.80;;;0.70;;
15258;SDS011;34462;51.368;12.364;2022-09-27T08:38:28;3.23;;;1.10;;
15258;SDS011;34462;51.368;12.364;2022-09-27T08:40:57;1.10;;;1.00;;
15258;SDS011;34462;51.368;12.364;2022-09-27T08:43:35;1.20;;;1.10;;
15258;SDS011;34462;51.368;12.364;2022-09-27T08:46:18;1.80;;;0.83;;
15258;SDS011;34462;51.368;12.364;2022-09-27T08:48:57;3.30;;;1.00;;
15258;SDS011;34462;51.368;12.364;2022-09-27T08:51:34;2.20;;;1.00;;
15258;SDS011;34462;51.368;12.364;2022-09-27T08:54:04;1.20;;;1.00;;
15258;SDS011;34462;51.368;12.364;2022-09-27T08:56:40;0.90;;;0.70;;
15258;SDS011;34462;51.368;12.364;2022-09-27T08:59:10;1.33;;;0.90;;
15258;SDS011;34462;51.368;12.364;2022-09-27T09:01:46;1.20;;;1.10;;
15258;SDS011;34462;51.368;12.364;2022-09-27T09:04:18;1.27;;;1.17;;
15258;SDS011;34462;51.368;12.364;2022-09-27T09:06:57;1.57;;;1.40;;
15258;SDS011;34462;51.368;12.364;2022-09-27T09:09:43;1.93;;;1.20;;
15258;SDS011;34462;51.368;12.364;2022-09-27T09:12:25;1.40;;;1.30;;
15258;SDS011;34462;51.368;12.364;2022-09-27T09:15:15;1.40;;;1.30;;
15258;SDS011;34462;51.368;12.364;2022-09-27T09:18:06;2.03;;;1.20;;
15258;SDS011;34462;51.368;12.364;2022-09-27T09:20:54;1.07;;;0.93;;
15258;SDS011;34462;51.368;12.364;2022-09-27T09:26:32;0.87;;;0.63;;
15258;SDS011;34462;51.368;12.364;2022-09-27T09:29:12;0.60;;;0.60;;
15258;SDS011;34462;51.368;12.364;2022-09-27T09:31:55;1.50;;;0.70;;
15258;SDS011;34462;51.368;12.364;2022-09-27T09:34:34;1.17;;;0.67;;
15258;SDS011;34462;51.368;12.364;2022-09-27T09:37:10;0.63;;;0.50;;
15258;SDS011;34462;51.368;12.364;2022-09-27T09:39:48;0.33;;;0.30;;
15258;SDS011;34462;51.368;12.364;2022-09-27T09:42:23;0.90;;;0.60;;
15258;SDS011;34462;51.368;12.364;2022-09-27T09:44:58;1.38;;;0.50;;
15258;SDS011;34462;51.368;12.364;2022-09-27T09:47:32;0.87;;;0.60;;
15258;SDS011;34462;51.368;12.364;2022-09-27T09:50:13;0.60;;;0.60;;
15258;SDS011;34462;51.368;12.364;2022-09-27T09:52:47;1.20;;;0.70;;
15258;SDS011;34462;51.368;12.364;2022-09-27T09:55:23;1.00;;;0.70;;
15258;SDS011;34462;51.368;12.364;2022-09-27T09:58:00;1.27;;;0.80;;
15258;SDS011;34462;51.368;12.364;2022-09-27T10:00:45;2.50;;;0.93;;
15258;SDS011;34462;51.368;12.364;2022-09-27T10:03:16;1.00;;;0.90;;
15258;SDS011;34462;51.368;12.364;2022-09-27T10:05:44;0.80;;;0.63;;
15258;SDS011;34462;51.368;12.364;2022-09-27T10:08:15;0.77;;;0.70;;
15258;SDS011;34462;51.368;12.364;2022-09-27T10:10:48;0.77;;;0.67;;
15258;SDS011;34462;51.368;12.364;2022-09-27T10:13:17;0.97;;;0.67;;
15258;SDS011;34462;51.368;12.364;2022-09-27T10:15:49;1.23;;;0.70;;
15258;SDS011;34462;51.368;12.364;2022-09-27T10:18:26;1.33;;;0.70;;
15258;SDS011;34462;51.368;12.364;2022-09-27T10:20:55;0.50;;;0.50;;
15258;SDS011;34462;51.368;12.364;2022-09-27T10:23:27;0.53;;;0.53;;
15258;SDS011;34462;51.368;12.364;2022-09-27T10:25:58;0.60;;;0.60;;
15258;SDS011;34462;51.368;12.364;2022-09-27T10:28:33;0.87;;;0.60;;
15258;SDS011;34462;51.368;12.364;2022-09-27T10:31:06;0.87;;;0.67;;
15258;SDS011;34462;51.368;12.364;2022-09-27T10:33:38;0.57;;;0.57;;
15258;SDS011;34462;51.368;12.364;2022-09-27T10:36:21;1.30;;;0.60;;
15258;SDS011;34462;51.368;12.364;2022-09-27T10:38:52;0.67;;;0.67;;
15258;SDS011;34462;51.368;12.364;2022-09-27T10:41:25;0.70;;;0.70;;
15258;SDS011;34462;51.368;12.364;2022-09-27T10:44:18;0.67;;;0.67;;
15258;SDS011;34462;51.368;12.364;2022-09-27T10:46:51;1.73;;;0.90;;
15258;SDS011;34462;51.368;12.364;2022-09-27T10:49:25;1.37;;;1.00;;
15258;SDS011;34462;51.368;12.364;2022-09-27T10:51:57;2.13;;;1.30;;
15258;SDS011;34462;51.368;12.364;2022-09-27T10:54:29;2.00;;;1.27;;
15258;SDS011;34462;51.368;12.364;2022-09-27T10:57:03;1.63;;;1.30;;
15258;SDS011;34462;51.368;12.364;2022-09-27T10:59:47;2.60;;;1.20;;
15258;SDS011;34462;51.368;12.364;2022-09-27T11:02:21;1.57;;;1.40;;
15258;SDS011;34462;51.368;12.364;2022-09-27T11:05:01;1.20;;;1.07;;
15258;SDS011;34462;51.368;12.364;2022-09-27T11:07:46;1.20;;;0.90;;
15258;SDS011;34462;51.368;12.364;2022-09-27T11:10:22;0.83;;;0.80;;
15258;SDS011;34462;51.368;12.364;2022-09-27T11:13:14;2.00;;;0.70;;
15258;SDS011;34462;51.368;12.364;2022-09-27T11:15:56;0.60;;;0.60;;
15258;SDS011;34462;51.368;12.364;2022-09-27T11:18:40;2.67;;;0.77;;
15258;SDS011;34462;51.368;12.364;2022-09-27T11:21:21;1.10;;;0.90;;
15258;SDS011;34462;51.368;12.364;2022-09-27T11:24:09;1.17;;;0.98;;
15258;SDS011;34462;51.368;12.364;2022-09-27T11:26:53;2.15;;;0.80;;
15258;SDS011;34462;51.368;12.364;2022-09-27T11:29:37;0.73;;;0.70;;
15258;SDS011;34462;51.368;12.364;2022-09-27T11:32:31;1.75;;;0.80;;
15258;SDS011;34462;51.368;12.364;2022-09-27T11:35:32;0.77;;;0.70;;
15258;SDS011;34462;51.368;12.364;2022-09-27T11:38:19;0.60;;;0.60;;
15258;SDS011;34462;51.368;12.364;2022-09-27T11:41:25;0.88;;;0.88;;
15258;SDS011;34462;51.368;12.364;2022-09-27T11:44:20;0.93;;;0.68;;
15258;SDS011;34462;51.368;12.364;2022-09-27T11:47:37;0.90;;;0.70;;
15258;SDS011;34462;51.368;12.364;2022-09-27T11:50:30;0.60;;;0.60;;
15258;SDS011;34462;51.368;12.364;2022-09-27T11:53:51;0.60;;;0.60;;
15258;SDS011;34462;51.368;12.364;2022-09-27T11:56:40;1.43;;;1.20;;
15258;SDS011;34462;51.368;12.364;2022-09-27T11:59:26;1.43;;;0.90;;
15258;SDS011;34462;51.368;12.364;2022-09-27T12:02:28;1.80;;;1.00;;
15258;SDS011;34462;51.368;12.364;2022-09-27T12:05:29;1.60;;;0.80;;
15258;SDS011;34462;51.368;12.364;2022-09-27T12:08:14;1.07;;;0.80;;
15258;SDS011;34462;51.368;12.364;2022-09-27T12:10:58;1.10;;;1.00;;
15258;SDS011;34462;51.368;12.364;2022-09-27T12:13:38;1.10;;;1.00;;
15258;SDS011;34462;51.368;12.364;2022-09-27T12:16:13;1.57;;;1.20;;
15258;SDS011;34462;51.368;12.364;2022-09-27T12:18:43;1.08;;;0.98;;
15258;SDS011;34462;51.368;12.364;2022-09-27T12:21:17;1.30;;;1.20;;
15258;SDS011;34462;51.368;12.364;2022-09-27T12:23:48;1.40;;;1.20;;
15258;SDS011;34462;51.368;12.364;2022-09-27T12:26:24;2.03;;;1.17;;
15258;SDS011;34462;51.368;12.364;2022-09-27T12:29:01;1.27;;;1.13;;
15258;SDS011;34462;51.368;12.364;2022-09-27T12:31:43;1.13;;;1.02;;
15258;SDS011;34462;51.368;12.364;2022-09-27T12:34:19;0.90;;;0.90;;
15258;SDS011;34462;51.368;12.364;2022-09-27T12:36:58;1.10;;;1.00;;
15258;SDS011;34462;51.368;12.364;2022-09-27T12:39:37;2.38;;;1.30;;
15258;SDS011;34462;51.368;12.364;2022-09-27T12:42:16;1.15;;;1.00;;
15258;SDS011;34462;51.368;12.364;2022-09-27T12:44:50;1.33;;;0.90;;
15258;SDS011;34462;51.368;12.364;2022-09-27T12:47:27;1.58;;;1.08;;
15258;SDS011;34462;51.368;12.364;2022-09-27T12:50:13;1.38;;;0.90;;
15258;SDS011;34462;51.368;12.364;2022-09-27T12:52:56;1.30;;;0.98;;
15258;SDS011;34462;51.368;12.364;2022-09-27T12:55:43;3.30;;;0.80;;
15258;SDS011;34462;51.368;12.364;2022-09-27T12:58:43;2.05;;;1.00;;
15258;SDS011;34462;51.368;12.364;2022-09-27T13:01:49;0.98;;;0.73;;
15258;SDS011;34462;51.368;12.364;2022-09-27T13:04:52;1.30;;;0.82;;
15258;SDS011;34462;51.368;12.364;2022-09-27T13:07:54;1.50;;;0.80;;
15258;SDS011;34462;51.368;12.364;2022-09-27T13:10:47;1.23;;;1.10;;
15258;SDS011;34462;51.368;12.364;2022-09-27T13:13:27;1.33;;;1.00;;
15258;SDS011;34462;51.368;12.364;2022-09-27T13:16:01;1.45;;;1.20;;
15258;SDS011;34462;51.368;12.364;2022-09-27T13:18:31;1.55;;;0.90;;
15258;SDS011;34462;51.368;12.364;2022-09-27T13:24:28;2.55;;;1.17;;
15258;SDS011;34462;51.368;12.364;2022-09-27T13:33:31;2.13;;;1.50;;
15258;SDS011;34462;51.368;12.364;2022-09-27T13:36:27;2.60;;;1.30;;
15258;SDS011;34462;51.368;12.364;2022-09-27T13:39:15;2.08;;;1.45;;
15258;SDS011;34462;51.368;12.364;2022-09-27T13:41:53;2.28;;;1.30;;
15258;SDS011;34462;51.368;12.364;2022-09-27T13:44:42;1.48;;;1.20;;
15258;SDS011;34462;51.368;12.364;2022-09-27T13:47:28;2.92;;;1.10;;
15258;SDS011;34462;51.368;12.364;2022-09-27T13:50:11;1.50;;;0.95;;
15258;SDS011;34462;51.368;12.364;2022-09-27T13:52:56;1.38;;;1.27;;
15258;SDS011;34462;51.368;12.364;2022-09-27T13:55:46;1.52;;;1.23;;
15258;SDS011;34462;51.368;12.364;2022-09-27T14:01:14;1.35;;;1.25;;
15258;SDS011;34462;51.368;12.364;2022-09-27T14:03:51;2.75;;;1.30;;
15258;SDS011;34462;51.368;12.364;2022-09-27T14:06:24;1.63;;;1.52;;
15258;SDS011;34462;51.368;12.364;2022-09-27T14:08:57;1.60;;;1.50;;
15258;SDS011;34462;51.368;12.364;2022-09-27T14:11:33;1.48;;;1.38;;
15258;SDS011;34462;51.368;12.364;2022-09-27T14:14:06;2.80;;;1.60;;
15258;SDS011;34462;51.368;12.364;2022-09-27T14:16:44;2.97;;;1.25;;
15258;SDS011;34462;51.368;12.364;2022-09-27T14:19:14;1.73;;;1.38;;
15258;SDS011;34462;51.368;12.364;2022-09-27T14:21:46;1.40;;;1.20;;
15258;SDS011;34462;51.368;12.364;2022-09-27T14:24:25;1.30;;;1.20;;
15258;SDS011;34462;51.368;12.364;2022-09-27T14:27:09;1.35;;;1.00;;
15258;SDS011;34462;51.368;12.364;2022-09-27T14:29:43;1.70;;;1.23;;
15258;SDS011;34462;51.368;12.364;2022-09-27T14:32:15;1.92;;;0.98;;
15258;SDS011;34462;51.368;12.364;2022-09-27T14:34:46;1.77;;;1.00;;
15258;SDS011;34462;51.368;12.364;2022-09-27T14:37:53;0.70;;;0.70;;
15258;SDS011;34462;51.368;12.364;2022-09-27T14:40:21;0.87;;;0.70;;
15258;SDS011;34462;51.368;12.364;2022-09-27T14:42:52;0.93;;;0.70;;
15258;SDS011;34462;51.368;12.364;2022-09-27T14:45:25;0.70;;;0.70;;
15258;SDS011;34462;51.368;12.364;2022-09-27T14:48:02;1.63;;;0.88;;
15258;SDS011;34462;51.368;12.364;2022-09-27T14:50:54;1.45;;;0.75;;
15258;SDS011;34462;51.368;12.364;2022-09-27T14:53:32;0.60;;;0.60;;
15258;SDS011;34462;51.368;12.364;2022-09-27T14:56:08;0.82;;;0.70;;
15258;SDS011;34462;51.368;12.364;2022-09-27T14:58:44;1.00;;;0.90;;
15258;SDS011;34462;51.368;12.364;2022-09-27T15:01:13;1.02;;;0.93;;
15258;SDS011;34462;51.368;12.364;2022-09-27T15:03:43;0.60;;;0.60;;
15258;SDS011;34462;51.368;12.364;2022-09-27T15:06:14;2.58;;;1.25;;
15258;SDS011;34462;51.368;12.364;2022-09-27T15:08:43;0.80;;;0.80;;
15258;SDS011;34462;51.368;12.364;2022-09-27T15:11:15;2.27;;;0.63;;
15258;SDS011;34462;51.368;12.364;2022-09-27T15:13:45;0.60;;;0.60;;
15258;SDS011;34462;51.368;12.364;2022-09-27T15:16:20;1.80;;;0.63;;
15258;SDS011;34462;51.368;12.364;2022-09-27T15:18:57;1.00;;;0.70;;
15258;SDS011;34462;51.368;12.364;2022-09-27T15:21:29;0.75;;;0.70;;
15258;SDS011;34462;51.368;12.364;2022-09-27T15:23:59;1.20;;;1.00;;
15258;SDS011;34462;51.368;12.364;2022-09-27T15:26:33;1.00;;;0.90;;
15258;SDS011;34462;51.368;12.364;2022-09-27T15:29:16;0.83;;;0.80;;
15258;SDS011;34462;51.368;12.364;2022-09-27T15:31:49;1.37;;;1.20;;
15258;SDS011;34462;51.368;12.364;2022-09-27T15:34:26;2.30;;;1.30;;
15258;SDS011;34462;51.368;12.364;2022-09-27T15:36:56;1.10;;;1.00;;